sensor_id;sensor_type;location;lat;lon;timestamp;P1;durP1;ratioP1;P2;durP2;ratioP2
65855;SDS011;52631;42.208;24.656;2023-06-05T00:01:24;9.70;;;5.47;;
65855;SDS011;52631;42.208;24.656;2023-06-05T00:03:49;15.00;;;5.45;;
65855;SDS011;52631;42.208;24.656;2023-06-05T00:06:15;11.40;;;5.13;;
65855;SDS011;52631;42.208;24.656;2023-06-05T00:08:40;10.93;;;5.53;;
65855;SDS011;52631;42.208;24.656;2023-06-05T00:11:06;10.60;;;5.55;;
65855;SDS011;52631;42.208;24.656;2023-06-05T00:13:31;11.15;;;4.80;;
65855;SDS011;52631;42.208;24.656;2023-06-05T00:15:57;8.82;;;4.63;;
65855;SDS011;52631;42.208;24.656;2023-06-05T00:18:22;10.48;;;4.47;;
65855;SDS011;52631;42.208;24.656;2023-06-05T00:20:48;8.98;;;4.82;;
65855;SDS011;52631;42.208;24.656;2023-06-05T00:23:13;10.38;;;4.50;;
65855;SDS011;52631;42.208;24.656;2023-06-05T00:25:39;10.77;;;4.85;;
65855;SDS011;52631;42.208;24.656;2023-06-05T00:28:05;6.70;;;4.15;;
65855;SDS011;52631;42.208;24.656;2023-06-05T00:30:30;9.68;;;4.53;;
65855;SDS011;52631;42.208;24.656;2023-06-05T00:32:56;9.82;;;3.85;;
65855;SDS011;52631;42.208;24.656;2023-06-05T00:35:22;6.70;;;3.83;;
65855;SDS011;52631;42.208;24.656;2023-06-05T00:37:47;8.15;;;3.65;;
65855;SDS011;52631;42.208;24.656;2023-06-05T00:40:13;7.97;;;3.40;;
65855;SDS011;52631;42.208;24.656;2023-06-05T00:42:38;8.40;;;3.83;;
65855;SDS011;52631;42.208;24.656;2023-06-05T00:45:04;9.15;;;3.80;;
65855;SDS011;52631;42.208;24.656;2023-06-05T00:47:30;8.02;;;3.97;;
65855;SDS011;52631;42.208;24.656;2023-06-05T00:49:55;7.47;;;3.63;;
65855;SDS011;52631;42.208;24.656;2023-06-05T00:52:21;5.72;;;3.08;;
65855;SDS011;52631;42.208;24.656;2023-06-05T00:54:47;7.05;;;3.08;;
65855;SDS011;52631;42.208;24.656;2023-06-05T00:57:13;11.38;;;3.58;;
65855;SDS011;52631;42.208;24.656;2023-06-05T00:59:39;7.15;;;3.20;;
65855;SDS011;52631;42.208;24.656;2023-06-05T01:02:05;6.47;;;3.17;;
65855;SDS011;52631;42.208;24.656;2023-06-05T01:04:31;8.00;;;3.58;;
65855;SDS011;52631;42.208;24.656;2023-06-05T01:06:58;8.60;;;3.55;;
65855;SDS011;52631;42.208;24.656;2023-06-05T01:09:26;6.82;;;3.88;;
65855;SDS011;52631;42.208;24.656;2023-06-05T01:11:52;9.07;;;3.80;;
65855;SDS011;52631;42.208;24.656;2023-06-05T01:14:30;7.13;;;3.60;;
65855;SDS011;52631;42.208;24.656;2023-06-05T01:16:57;7.78;;;3.60;;
65855;SDS011;52631;42.208;24.656;2023-06-05T01:19:25;9.77;;;3.92;;
65855;SDS011;52631;42.208;24.656;2023-06-05T01:21:54;8.70;;;3.60;;
65855;SDS011;52631;42.208;24.656;2023-06-05T01:24:20;12.43;;;3.60;;
65855;SDS011;52631;42.208;24.656;2023-06-05T01:35:14;6.57;;;3.35;;
65855;SDS011;52631;42.208;24.656;2023-06-05T01:37:42;12.35;;;3.85;;
65855;SDS011;52631;42.208;24.656;2023-06-05T01:42:39;6.45;;;3.13;;
65855;SDS011;52631;42.208;24.656;2023-06-05T01:45:06;8.68;;;3.10;;
65855;SDS011;52631;42.208;24.656;2023-06-05T01:47:34;5.57;;;3.10;;
65855;SDS011;52631;42.208;24.656;2023-06-05T01:50:00;6.60;;;3.10;;
65855;SDS011;52631;42.208;24.656;2023-06-05T01:52:26;6.45;;;2.92;;
65855;SDS011;52631;42.208;24.656;2023-06-05T01:54:51;7.72;;;2.60;;
65855;SDS011;52631;42.208;24.656;2023-06-05T01:57:17;12.18;;;3.47;;
65855;SDS011;52631;42.208;24.656;2023-06-05T01:59:43;9.30;;;2.80;;
65855;SDS011;52631;42.208;24.656;2023-06-05T02:02:10;8.43;;;3.03;;
65855;SDS011;52631;42.208;24.656;2023-06-05T02:04:37;5.85;;;2.60;;
65855;SDS011;52631;42.208;24.656;2023-06-05T02:07:03;7.38;;;2.83;;
65855;SDS011;52631;42.208;24.656;2023-06-05T02:09:30;6.22;;;2.72;;
65855;SDS011;52631;42.208;24.656;2023-06-05T02:12:00;6.97;;;2.70;;
65855;SDS011;52631;42.208;24.656;2023-06-05T02:14:31;6.30;;;2.80;;
65855;SDS011;52631;42.208;24.656;2023-06-05T02:17:09;9.45;;;2.60;;
65855;SDS011;52631;42.208;24.656;2023-06-05T02:19:41;9.27;;;2.90;;
65855;SDS011;52631;42.208;24.656;2023-06-05T02:22:07;7.88;;;2.80;;
65855;SDS011;52631;42.208;24.656;2023-06-05T02:24:32;8.10;;;2.72;;
65855;SDS011;52631;42.208;24.656;2023-06-05T02:26:58;8.20;;;2.60;;
65855;SDS011;52631;42.208;24.656;2023-06-05T02:29:24;7.03;;;2.50;;
65855;SDS011;52631;42.208;24.656;2023-06-05T02:31:49;5.65;;;2.60;;
65855;SDS011;52631;42.208;24.656;2023-06-05T02:34:15;6.35;;;2.47;;
65855;SDS011;52631;42.208;24.656;2023-06-05T02:36:41;8.15;;;2.80;;
65855;SDS011;52631;42.208;24.656;2023-06-05T02:39:10;11.48;;;2.67;;
65855;SDS011;52631;42.208;24.656;2023-06-05T02:41:36;8.13;;;2.72;;
65855;SDS011;52631;42.208;24.656;2023-06-05T02:44:02;12.23;;;2.72;;
65855;SDS011;52631;42.208;24.656;2023-06-05T02:46:28;7.35;;;2.78;;
65855;SDS011;52631;42.208;24.656;2023-06-05T02:48:53;10.93;;;2.67;;
65855;SDS011;52631;42.208;24.656;2023-06-05T02:51:19;7.97;;;2.30;;
65855;SDS011;52631;42.208;24.656;2023-06-05T02:53:45;6.80;;;2.97;;
65855;SDS011;52631;42.208;24.656;2023-06-05T02:56:10;11.45;;;3.25;;
65855;SDS011;52631;42.208;24.656;2023-06-05T02:58:37;6.95;;;2.70;;
65855;SDS011;52631;42.208;24.656;2023-06-05T03:01:04;10.20;;;2.53;;
65855;SDS011;52631;42.208;24.656;2023-06-05T03:03:33;9.45;;;2.60;;
65855;SDS011;52631;42.208;24.656;2023-06-05T03:05:59;6.50;;;2.63;;
65855;SDS011;52631;42.208;24.656;2023-06-05T03:08:35;9.93;;;2.90;;
65855;SDS011;52631;42.208;24.656;2023-06-05T03:11:01;8.95;;;2.80;;
65855;SDS011;52631;42.208;24.656;2023-06-05T03:13:26;8.48;;;2.50;;
65855;SDS011;52631;42.208;24.656;2023-06-05T03:15:52;6.47;;;2.70;;
65855;SDS011;52631;42.208;24.656;2023-06-05T03:18:22;8.88;;;2.53;;
65855;SDS011;52631;42.208;24.656;2023-06-05T03:20:51;7.97;;;2.65;;
65855;SDS011;52631;42.208;24.656;2023-06-05T03:23:23;12.48;;;2.53;;
65855;SDS011;52631;42.208;24.656;2023-06-05T03:25:52;8.93;;;2.50;;
65855;SDS011;52631;42.208;24.656;2023-06-05T03:28:18;7.13;;;3.35;;
65855;SDS011;52631;42.208;24.656;2023-06-05T03:30:46;5.93;;;2.70;;
65855;SDS011;52631;42.208;24.656;2023-06-05T03:33:12;5.15;;;2.78;;
65855;SDS011;52631;42.208;24.656;2023-06-05T03:35:42;8.95;;;2.78;;
65855;SDS011;52631;42.208;24.656;2023-06-05T03:38:08;8.00;;;2.90;;
65855;SDS011;52631;42.208;24.656;2023-06-05T03:40:34;8.20;;;3.05;;
65855;SDS011;52631;42.208;24.656;2023-06-05T03:43:00;10.43;;;3.47;;
65855;SDS011;52631;42.208;24.656;2023-06-05T03:45:25;11.25;;;3.58;;
65855;SDS011;52631;42.208;24.656;2023-06-05T03:47:52;10.85;;;2.95;;
65855;SDS011;52631;42.208;24.656;2023-06-05T03:50:19;7.15;;;3.17;;
65855;SDS011;52631;42.208;24.656;2023-06-05T03:52:45;8.60;;;2.90;;
65855;SDS011;52631;42.208;24.656;2023-06-05T03:55:20;8.90;;;2.70;;
65855;SDS011;52631;42.208;24.656;2023-06-05T03:57:46;8.77;;;2.60;;
65855;SDS011;52631;42.208;24.656;2023-06-05T04:00:12;5.95;;;2.40;;
65855;SDS011;52631;42.208;24.656;2023-06-05T04:02:39;7.93;;;3.05;;
65855;SDS011;52631;42.208;24.656;2023-06-05T04:05:06;7.32;;;2.58;;
65855;SDS011;52631;42.208;24.656;2023-06-05T04:07:36;6.63;;;2.10;;
65855;SDS011;52631;42.208;24.656;2023-06-05T04:10:02;6.68;;;2.20;;
65855;SDS011;52631;42.208;24.656;2023-06-05T04:12:27;6.70;;;2.88;;
65855;SDS011;52631;42.208;24.656;2023-06-05T04:14:53;10.00;;;2.88;;
65855;SDS011;52631;42.208;24.656;2023-06-05T04:17:19;12.27;;;4.28;;
65855;SDS011;52631;42.208;24.656;2023-06-05T04:19:44;9.98;;;2.88;;
65855;SDS011;52631;42.208;24.656;2023-06-05T04:22:10;12.77;;;2.65;;
65855;SDS011;52631;42.208;24.656;2023-06-05T04:24:35;11.43;;;3.08;;
65855;SDS011;52631;42.208;24.656;2023-06-05T04:27:03;8.70;;;2.85;;
65855;SDS011;52631;42.208;24.656;2023-06-05T04:29:29;7.10;;;2.58;;
65855;SDS011;52631;42.208;24.656;2023-06-05T04:31:57;11.45;;;3.00;;
65855;SDS011;52631;42.208;24.656;2023-06-05T04:34:22;7.53;;;2.53;;
65855;SDS011;52631;42.208;24.656;2023-06-05T04:36:48;10.15;;;3.15;;
65855;SDS011;52631;42.208;24.656;2023-06-05T04:39:15;11.13;;;3.05;;
65855;SDS011;52631;42.208;24.656;2023-06-05T04:41:43;9.50;;;2.78;;
65855;SDS011;52631;42.208;24.656;2023-06-05T04:44:14;7.43;;;2.40;;
65855;SDS011;52631;42.208;24.656;2023-06-05T04:46:41;7.43;;;2.97;;
65855;SDS011;52631;42.208;24.656;2023-06-05T04:49:09;6.07;;;2.65;;
65855;SDS011;52631;42.208;24.656;2023-06-05T04:51:38;6.77;;;2.77;;
65855;SDS011;52631;42.208;24.656;2023-06-05T04:54:04;8.48;;;2.80;;
65855;SDS011;52631;42.208;24.656;2023-06-05T04:56:30;7.68;;;2.88;;
65855;SDS011;52631;42.208;24.656;2023-06-05T04:58:57;8.18;;;2.55;;
65855;SDS011;52631;42.208;24.656;2023-06-05T05:01:24;12.88;;;3.15;;
65855;SDS011;52631;42.208;24.656;2023-06-05T05:03:50;11.40;;;2.60;;
65855;SDS011;52631;42.208;24.656;2023-06-05T05:06:16;6.82;;;3.00;;
65855;SDS011;52631;42.208;24.656;2023-06-05T05:08:42;10.10;;;2.58;;
65855;SDS011;52631;42.208;24.656;2023-06-05T05:11:11;6.72;;;2.50;;
65855;SDS011;52631;42.208;24.656;2023-06-05T05:13:37;6.50;;;2.58;;
65855;SDS011;52631;42.208;24.656;2023-06-05T05:16:03;10.13;;;2.60;;
65855;SDS011;52631;42.208;24.656;2023-06-05T05:18:28;5.43;;;2.30;;
65855;SDS011;52631;42.208;24.656;2023-06-05T05:20:55;9.70;;;2.70;;
65855;SDS011;52631;42.208;24.656;2023-06-05T05:23:20;8.50;;;2.42;;
65855;SDS011;52631;42.208;24.656;2023-06-05T05:25:46;6.40;;;2.75;;
65855;SDS011;52631;42.208;24.656;2023-06-05T05:28:12;5.85;;;2.45;;
65855;SDS011;52631;42.208;24.656;2023-06-05T05:30:38;6.72;;;2.75;;
65855;SDS011;52631;42.208;24.656;2023-06-05T05:33:03;8.38;;;2.72;;
65855;SDS011;52631;42.208;24.656;2023-06-05T05:35:29;6.60;;;2.60;;
65855;SDS011;52631;42.208;24.656;2023-06-05T05:37:55;6.63;;;2.53;;
65855;SDS011;52631;42.208;24.656;2023-06-05T05:40:21;6.43;;;2.95;;
65855;SDS011;52631;42.208;24.656;2023-06-05T05:42:46;9.95;;;2.78;;
65855;SDS011;52631;42.208;24.656;2023-06-05T05:45:12;7.30;;;2.63;;
65855;SDS011;52631;42.208;24.656;2023-06-05T05:47:37;9.57;;;3.70;;
65855;SDS011;52631;42.208;24.656;2023-06-05T05:50:04;11.05;;;3.72;;
65855;SDS011;52631;42.208;24.656;2023-06-05T05:52:30;7.18;;;3.75;;
65855;SDS011;52631;42.208;24.656;2023-06-05T05:54:55;11.68;;;4.93;;
65855;SDS011;52631;42.208;24.656;2023-06-05T05:57:23;13.18;;;4.55;;
65855;SDS011;52631;42.208;24.656;2023-06-05T05:59:49;12.80;;;4.72;;
65855;SDS011;52631;42.208;24.656;2023-06-05T06:02:14;8.02;;;3.50;;
65855;SDS011;52631;42.208;24.656;2023-06-05T06:04:41;9.90;;;3.75;;
65855;SDS011;52631;42.208;24.656;2023-06-05T06:07:09;13.57;;;6.25;;
65855;SDS011;52631;42.208;24.656;2023-06-05T06:09:35;11.20;;;4.45;;
65855;SDS011;52631;42.208;24.656;2023-06-05T06:12:00;8.27;;;3.83;;
65855;SDS011;52631;42.208;24.656;2023-06-05T06:14:32;11.23;;;3.83;;
65855;SDS011;52631;42.208;24.656;2023-06-05T06:16:58;12.70;;;5.70;;
65855;SDS011;52631;42.208;24.656;2023-06-05T06:19:27;12.40;;;5.35;;
65855;SDS011;52631;42.208;24.656;2023-06-05T06:21:53;10.27;;;4.75;;
65855;SDS011;52631;42.208;24.656;2023-06-05T06:24:19;10.65;;;5.05;;
65855;SDS011;52631;42.208;24.656;2023-06-05T06:26:46;12.02;;;4.85;;
65855;SDS011;52631;42.208;24.656;2023-06-05T06:29:13;11.80;;;5.75;;
65855;SDS011;52631;42.208;24.656;2023-06-05T06:31:40;12.15;;;6.40;;
65855;SDS011;52631;42.208;24.656;2023-06-05T06:34:07;11.98;;;5.43;;
65855;SDS011;52631;42.208;24.656;2023-06-05T06:36:35;12.50;;;6.00;;
65855;SDS011;52631;42.208;24.656;2023-06-05T06:39:05;13.15;;;6.43;;
65855;SDS011;52631;42.208;24.656;2023-06-05T06:41:32;15.93;;;5.72;;
65855;SDS011;52631;42.208;24.656;2023-06-05T06:43:58;11.93;;;5.60;;
65855;SDS011;52631;42.208;24.656;2023-06-05T06:46:24;10.65;;;5.78;;
65855;SDS011;52631;42.208;24.656;2023-06-05T06:48:49;15.45;;;6.60;;
65855;SDS011;52631;42.208;24.656;2023-06-05T06:51:15;9.50;;;5.88;;
65855;SDS011;52631;42.208;24.656;2023-06-05T06:53:42;10.65;;;6.10;;
65855;SDS011;52631;42.208;24.656;2023-06-05T06:56:08;11.60;;;6.35;;
65855;SDS011;52631;42.208;24.656;2023-06-05T06:58:34;9.02;;;6.03;;
65855;SDS011;52631;42.208;24.656;2023-06-05T07:01:00;11.93;;;6.75;;
65855;SDS011;52631;42.208;24.656;2023-06-05T07:03:25;12.45;;;6.18;;
65855;SDS011;52631;42.208;24.656;2023-06-05T07:05:50;11.38;;;6.57;;
65855;SDS011;52631;42.208;24.656;2023-06-05T07:08:16;13.30;;;6.82;;
65855;SDS011;52631;42.208;24.656;2023-06-05T07:10:41;11.55;;;6.97;;
65855;SDS011;52631;42.208;24.656;2023-06-05T07:13:07;21.05;;;7.78;;
65855;SDS011;52631;42.208;24.656;2023-06-05T07:15:33;28.60;;;7.63;;
65855;SDS011;52631;42.208;24.656;2023-06-05T07:17:58;13.27;;;6.55;;
65855;SDS011;52631;42.208;24.656;2023-06-05T07:20:23;12.25;;;6.57;;
65855;SDS011;52631;42.208;24.656;2023-06-05T07:22:49;12.00;;;7.47;;
65855;SDS011;52631;42.208;24.656;2023-06-05T07:25:14;9.00;;;6.00;;
65855;SDS011;52631;42.208;24.656;2023-06-05T07:27:42;11.57;;;7.20;;
65855;SDS011;52631;42.208;24.656;2023-06-05T07:30:09;12.50;;;7.13;;
65855;SDS011;52631;42.208;24.656;2023-06-05T07:32:35;11.38;;;6.80;;
65855;SDS011;52631;42.208;24.656;2023-06-05T07:35:01;11.07;;;7.22;;
65855;SDS011;52631;42.208;24.656;2023-06-05T07:37:27;10.68;;;6.72;;
65855;SDS011;52631;42.208;24.656;2023-06-05T07:39:52;9.45;;;6.60;;
65855;SDS011;52631;42.208;24.656;2023-06-05T07:42:19;10.10;;;6.35;;
65855;SDS011;52631;42.208;24.656;2023-06-05T07:44:44;11.48;;;7.28;;
65855;SDS011;52631;42.208;24.656;2023-06-05T07:47:10;12.73;;;6.45;;
65855;SDS011;52631;42.208;24.656;2023-06-05T07:49:35;13.27;;;7.00;;
65855;SDS011;52631;42.208;24.656;2023-06-05T07:52:01;11.68;;;7.15;;
65855;SDS011;52631;42.208;24.656;2023-06-05T07:54:26;10.23;;;6.90;;
65855;SDS011;52631;42.208;24.656;2023-06-05T07:56:52;13.90;;;6.50;;
65855;SDS011;52631;42.208;24.656;2023-06-05T07:59:18;10.30;;;6.93;;
65855;SDS011;52631;42.208;24.656;2023-06-05T08:01:49;11.73;;;6.72;;
65855;SDS011;52631;42.208;24.656;2023-06-05T08:04:14;11.85;;;7.15;;
65855;SDS011;52631;42.208;24.656;2023-06-05T08:06:41;11.57;;;7.32;;
65855;SDS011;52631;42.208;24.656;2023-06-05T08:09:07;12.18;;;7.30;;
65855;SDS011;52631;42.208;24.656;2023-06-05T08:11:36;16.60;;;7.40;;
65855;SDS011;52631;42.208;24.656;2023-06-05T08:14:02;12.82;;;7.30;;
65855;SDS011;52631;42.208;24.656;2023-06-05T08:16:30;11.23;;;6.80;;
65855;SDS011;52631;42.208;24.656;2023-06-05T08:18:56;10.45;;;6.25;;
65855;SDS011;52631;42.208;24.656;2023-06-05T08:21:22;9.10;;;6.03;;
65855;SDS011;52631;42.208;24.656;2023-06-05T08:23:47;12.35;;;5.45;;
65855;SDS011;52631;42.208;24.656;2023-06-05T08:26:13;8.70;;;5.82;;
65855;SDS011;52631;42.208;24.656;2023-06-05T08:28:39;8.77;;;4.78;;
65855;SDS011;52631;42.208;24.656;2023-06-05T08:31:05;10.90;;;4.88;;
65855;SDS011;52631;42.208;24.656;2023-06-05T08:33:31;8.73;;;4.93;;
65855;SDS011;52631;42.208;24.656;2023-06-05T08:36:00;13.27;;;5.15;;
65855;SDS011;52631;42.208;24.656;2023-06-05T08:38:26;13.57;;;5.00;;
65855;SDS011;52631;42.208;24.656;2023-06-05T08:41:13;9.23;;;5.35;;
65855;SDS011;52631;42.208;24.656;2023-06-05T08:43:41;8.82;;;4.90;;
65855;SDS011;52631;42.208;24.656;2023-06-05T08:46:11;7.20;;;4.32;;
65855;SDS011;52631;42.208;24.656;2023-06-05T08:48:38;10.68;;;5.20;;
65855;SDS011;52631;42.208;24.656;2023-06-05T08:51:18;7.95;;;5.20;;
65855;SDS011;52631;42.208;24.656;2023-06-05T08:53:47;11.02;;;5.95;;
65855;SDS011;52631;42.208;24.656;2023-06-05T08:56:22;9.00;;;5.38;;
65855;SDS011;52631;42.208;24.656;2023-06-05T08:58:48;8.00;;;5.30;;
65855;SDS011;52631;42.208;24.656;2023-06-05T09:01:14;7.38;;;5.15;;
65855;SDS011;52631;42.208;24.656;2023-06-05T09:03:39;8.95;;;6.15;;
65855;SDS011;52631;42.208;24.656;2023-06-05T09:06:04;8.52;;;5.22;;
65855;SDS011;52631;42.208;24.656;2023-06-05T09:08:33;9.30;;;5.30;;
65855;SDS011;52631;42.208;24.656;2023-06-05T09:13:46;9.35;;;5.38;;
65855;SDS011;52631;42.208;24.656;2023-06-05T09:16:12;8.00;;;4.93;;
65855;SDS011;52631;42.208;24.656;2023-06-05T09:21:20;9.65;;;5.90;;
65855;SDS011;52631;42.208;24.656;2023-06-05T09:23:46;8.95;;;4.90;;
65855;SDS011;52631;42.208;24.656;2023-06-05T09:26:11;10.15;;;4.95;;
65855;SDS011;52631;42.208;24.656;2023-06-05T09:29:00;6.38;;;4.88;;
65855;SDS011;52631;42.208;24.656;2023-06-05T09:31:27;9.13;;;4.93;;
65855;SDS011;52631;42.208;24.656;2023-06-05T09:34:05;8.45;;;4.75;;
65855;SDS011;52631;42.208;24.656;2023-06-05T09:36:30;6.25;;;4.75;;
65855;SDS011;52631;42.208;24.656;2023-06-05T09:39:00;8.05;;;4.63;;
65855;SDS011;52631;42.208;24.656;2023-06-05T09:41:42;7.20;;;4.75;;
65855;SDS011;52631;42.208;24.656;2023-06-05T09:44:09;8.73;;;4.75;;
65855;SDS011;52631;42.208;24.656;2023-06-05T09:46:35;11.45;;;5.80;;
65855;SDS011;52631;42.208;24.656;2023-06-05T09:52:10;7.78;;;4.45;;
65855;SDS011;52631;42.208;24.656;2023-06-05T09:54:36;8.48;;;4.35;;
65855;SDS011;52631;42.208;24.656;2023-06-05T09:57:03;9.23;;;4.53;;
65855;SDS011;52631;42.208;24.656;2023-06-05T09:59:30;5.50;;;4.00;;
65855;SDS011;52631;42.208;24.656;2023-06-05T10:02:01;9.27;;;3.67;;
65855;SDS011;52631;42.208;24.656;2023-06-05T10:04:29;5.85;;;3.92;;
65855;SDS011;52631;42.208;24.656;2023-06-05T10:07:01;8.55;;;4.15;;
65855;SDS011;52631;42.208;24.656;2023-06-05T10:09:28;11.23;;;4.18;;
65855;SDS011;52631;42.208;24.656;2023-06-05T10:11:54;5.70;;;3.60;;
65855;SDS011;52631;42.208;24.656;2023-06-05T10:14:20;6.43;;;3.80;;
65855;SDS011;52631;42.208;24.656;2023-06-05T10:16:49;5.95;;;3.50;;
65855;SDS011;52631;42.208;24.656;2023-06-05T10:19:19;6.30;;;3.45;;
65855;SDS011;52631;42.208;24.656;2023-06-05T10:21:48;6.05;;;3.35;;
65855;SDS011;52631;42.208;24.656;2023-06-05T10:24:20;8.40;;;4.00;;
65855;SDS011;52631;42.208;24.656;2023-06-05T10:34:58;9.52;;;3.78;;
65855;SDS011;52631;42.208;24.656;2023-06-05T10:40:08;4.93;;;3.40;;
65855;SDS011;52631;42.208;24.656;2023-06-05T10:42:34;6.05;;;3.63;;
65855;SDS011;52631;42.208;24.656;2023-06-05T10:45:01;9.90;;;4.28;;
65855;SDS011;52631;42.208;24.656;2023-06-05T10:52:43;8.77;;;3.58;;
65855;SDS011;52631;42.208;24.656;2023-06-05T10:55:09;5.38;;;3.45;;
65855;SDS011;52631;42.208;24.656;2023-06-05T11:00:29;8.70;;;3.75;;
65855;SDS011;52631;42.208;24.656;2023-06-05T11:02:55;6.97;;;3.92;;
65855;SDS011;52631;42.208;24.656;2023-06-05T11:05:21;5.25;;;3.70;;
65855;SDS011;52631;42.208;24.656;2023-06-05T11:07:47;4.75;;;3.50;;
65855;SDS011;52631;42.208;24.656;2023-06-05T11:10:19;6.40;;;3.60;;
65855;SDS011;52631;42.208;24.656;2023-06-05T11:12:52;8.63;;;4.05;;
65855;SDS011;52631;42.208;24.656;2023-06-05T11:17:47;6.60;;;3.28;;
65855;SDS011;52631;42.208;24.656;2023-06-05T11:27:46;5.57;;;3.50;;
65855;SDS011;52631;42.208;24.656;2023-06-05T11:30:17;5.85;;;3.80;;
65855;SDS011;52631;42.208;24.656;2023-06-05T11:32:46;7.30;;;3.22;;
65855;SDS011;52631;42.208;24.656;2023-06-05T11:35:12;6.88;;;3.58;;
65855;SDS011;52631;42.208;24.656;2023-06-05T11:37:38;5.93;;;3.13;;
65855;SDS011;52631;42.208;24.656;2023-06-05T11:40:07;6.33;;;3.40;;
65855;SDS011;52631;42.208;24.656;2023-06-05T11:42:36;5.93;;;3.63;;
65855;SDS011;52631;42.208;24.656;2023-06-05T11:45:10;4.88;;;3.03;;
65855;SDS011;52631;42.208;24.656;2023-06-05T11:47:35;8.07;;;3.42;;
65855;SDS011;52631;42.208;24.656;2023-06-05T11:50:14;8.30;;;3.53;;
65855;SDS011;52631;42.208;24.656;2023-06-05T11:52:43;6.20;;;3.30;;
65855;SDS011;52631;42.208;24.656;2023-06-05T11:55:11;5.45;;;3.20;;
65855;SDS011;52631;42.208;24.656;2023-06-05T11:57:40;7.43;;;3.33;;
65855;SDS011;52631;42.208;24.656;2023-06-05T12:00:07;8.07;;;3.45;;
65855;SDS011;52631;42.208;24.656;2023-06-05T12:02:34;5.90;;;3.13;;
65855;SDS011;52631;42.208;24.656;2023-06-05T12:05:00;6.57;;;3.38;;
65855;SDS011;52631;42.208;24.656;2023-06-05T12:07:26;5.88;;;3.15;;
65855;SDS011;52631;42.208;24.656;2023-06-05T12:09:56;5.07;;;3.22;;
65855;SDS011;52631;42.208;24.656;2023-06-05T12:12:23;6.05;;;3.20;;
65855;SDS011;52631;42.208;24.656;2023-06-05T12:14:49;5.22;;;3.13;;
65855;SDS011;52631;42.208;24.656;2023-06-05T12:17:14;6.93;;;3.15;;
65855;SDS011;52631;42.208;24.656;2023-06-05T12:19:40;5.90;;;2.70;;
65855;SDS011;52631;42.208;24.656;2023-06-05T12:22:06;8.50;;;3.47;;
65855;SDS011;52631;42.208;24.656;2023-06-05T12:24:34;6.28;;;3.15;;
65855;SDS011;52631;42.208;24.656;2023-06-05T12:27:03;8.13;;;3.22;;
65855;SDS011;52631;42.208;24.656;2023-06-05T12:29:32;6.40;;;2.80;;
65855;SDS011;52631;42.208;24.656;2023-06-05T12:31:59;6.85;;;2.75;;
65855;SDS011;52631;42.208;24.656;2023-06-05T12:37:22;6.57;;;3.20;;
65855;SDS011;52631;42.208;24.656;2023-06-05T12:39:48;6.40;;;3.42;;
65855;SDS011;52631;42.208;24.656;2023-06-05T12:42:14;11.15;;;3.85;;
65855;SDS011;52631;42.208;24.656;2023-06-05T12:44:39;7.60;;;3.50;;
65855;SDS011;52631;42.208;24.656;2023-06-05T12:47:05;7.20;;;3.13;;
65855;SDS011;52631;42.208;24.656;2023-06-05T12:49:30;7.05;;;3.50;;
65855;SDS011;52631;42.208;24.656;2023-06-05T12:51:56;7.20;;;3.83;;
65855;SDS011;52631;42.208;24.656;2023-06-05T12:54:22;8.60;;;3.40;;
65855;SDS011;52631;42.208;24.656;2023-06-05T12:56:48;7.35;;;3.25;;
65855;SDS011;52631;42.208;24.656;2023-06-05T12:59:14;6.78;;;3.70;;
65855;SDS011;52631;42.208;24.656;2023-06-05T13:01:40;9.25;;;3.80;;
65855;SDS011;52631;42.208;24.656;2023-06-05T13:04:05;6.80;;;3.50;;
65855;SDS011;52631;42.208;24.656;2023-06-05T13:06:31;5.32;;;2.95;;
65855;SDS011;52631;42.208;24.656;2023-06-05T13:08:58;5.20;;;2.88;;
65855;SDS011;52631;42.208;24.656;2023-06-05T13:11:24;8.45;;;3.00;;
65855;SDS011;52631;42.208;24.656;2023-06-05T13:13:50;7.40;;;3.15;;
65855;SDS011;52631;42.208;24.656;2023-06-05T13:16:15;7.05;;;3.20;;
65855;SDS011;52631;42.208;24.656;2023-06-05T13:18:40;6.55;;;2.90;;
65855;SDS011;52631;42.208;24.656;2023-06-05T13:21:06;5.97;;;3.05;;
65855;SDS011;52631;42.208;24.656;2023-06-05T13:23:32;7.15;;;2.75;;
65855;SDS011;52631;42.208;24.656;2023-06-05T13:25:58;7.07;;;2.80;;
65855;SDS011;52631;42.208;24.656;2023-06-05T13:28:25;7.90;;;3.35;;
65855;SDS011;52631;42.208;24.656;2023-06-05T13:30:50;5.10;;;2.97;;
65855;SDS011;52631;42.208;24.656;2023-06-05T13:33:17;5.38;;;2.70;;
65855;SDS011;52631;42.208;24.656;2023-06-05T13:35:43;12.60;;;3.28;;
65855;SDS011;52631;42.208;24.656;2023-06-05T13:38:09;6.18;;;2.70;;
65855;SDS011;52631;42.208;24.656;2023-06-05T13:40:34;6.00;;;2.65;;
65855;SDS011;52631;42.208;24.656;2023-06-05T13:43:00;6.13;;;2.92;;
65855;SDS011;52631;42.208;24.656;2023-06-05T13:45:25;5.93;;;2.60;;
65855;SDS011;52631;42.208;24.656;2023-06-05T13:47:51;7.80;;;3.00;;
65855;SDS011;52631;42.208;24.656;2023-06-05T13:50:17;4.90;;;2.67;;
65855;SDS011;52631;42.208;24.656;2023-06-05T13:52:45;6.70;;;2.92;;
65855;SDS011;52631;42.208;24.656;2023-06-05T13:55:11;8.77;;;2.53;;
65855;SDS011;52631;42.208;24.656;2023-06-05T13:57:36;5.07;;;2.78;;
65855;SDS011;52631;42.208;24.656;2023-06-05T14:00:02;4.30;;;2.40;;
65855;SDS011;52631;42.208;24.656;2023-06-05T14:02:30;7.82;;;2.90;;
65855;SDS011;52631;42.208;24.656;2023-06-05T14:04:55;7.75;;;2.70;;
65855;SDS011;52631;42.208;24.656;2023-06-05T14:07:21;6.78;;;2.63;;
65855;SDS011;52631;42.208;24.656;2023-06-05T14:09:46;4.72;;;2.83;;
65855;SDS011;52631;42.208;24.656;2023-06-05T14:12:13;4.85;;;2.58;;
65855;SDS011;52631;42.208;24.656;2023-06-05T14:14:38;8.80;;;3.05;;
65855;SDS011;52631;42.208;24.656;2023-06-05T14:17:04;5.13;;;2.78;;
65855;SDS011;52631;42.208;24.656;2023-06-05T14:19:30;5.43;;;2.85;;
65855;SDS011;52631;42.208;24.656;2023-06-05T14:21:55;8.30;;;3.20;;
65855;SDS011;52631;42.208;24.656;2023-06-05T14:24:21;4.78;;;2.88;;
65855;SDS011;52631;42.208;24.656;2023-06-05T14:26:46;8.05;;;2.90;;
65855;SDS011;52631;42.208;24.656;2023-06-05T14:29:12;6.93;;;2.90;;
65855;SDS011;52631;42.208;24.656;2023-06-05T14:31:37;6.93;;;2.58;;
65855;SDS011;52631;42.208;24.656;2023-06-05T14:34:03;8.23;;;3.15;;
65855;SDS011;52631;42.208;24.656;2023-06-05T14:36:28;7.05;;;2.88;;
65855;SDS011;52631;42.208;24.656;2023-06-05T14:38:54;5.38;;;2.45;;
65855;SDS011;52631;42.208;24.656;2023-06-05T14:41:19;5.63;;;2.50;;
65855;SDS011;52631;42.208;24.656;2023-06-05T14:43:45;7.38;;;2.70;;
65855;SDS011;52631;42.208;24.656;2023-06-05T14:46:11;5.07;;;2.38;;
65855;SDS011;52631;42.208;24.656;2023-06-05T14:48:36;7.35;;;2.75;;
65855;SDS011;52631;42.208;24.656;2023-06-05T14:51:02;7.93;;;2.60;;
65855;SDS011;52631;42.208;24.656;2023-06-05T14:53:27;5.43;;;2.40;;
65855;SDS011;52631;42.208;24.656;2023-06-05T14:55:53;5.57;;;2.20;;
65855;SDS011;52631;42.208;24.656;2023-06-05T14:58:18;6.38;;;2.60;;
65855;SDS011;52631;42.208;24.656;2023-06-05T15:00:45;6.82;;;2.80;;
65855;SDS011;52631;42.208;24.656;2023-06-05T15:03:10;5.88;;;2.63;;
65855;SDS011;52631;42.208;24.656;2023-06-05T15:05:36;4.80;;;2.40;;
65855;SDS011;52631;42.208;24.656;2023-06-05T15:08:01;8.95;;;3.20;;
65855;SDS011;52631;42.208;24.656;2023-06-05T15:10:27;5.47;;;2.63;;
65855;SDS011;52631;42.208;24.656;2023-06-05T15:12:53;4.65;;;2.67;;
65855;SDS011;52631;42.208;24.656;2023-06-05T15:15:25;7.57;;;3.00;;
65855;SDS011;52631;42.208;24.656;2023-06-05T15:17:50;11.48;;;2.92;;
65855;SDS011;52631;42.208;24.656;2023-06-05T15:20:19;4.47;;;2.30;;